Time;durP1;ratioP1;P1;durP2;ratioP2;P2;SDS_P1;SDS_P2;PMS_P1;PMS_P2;Temp;Humidity;BMP_temperature;BMP_pressure;BME280_temperature;BME280_humidity;BME280_pressure;Samples;Min_cycle;Max_cycle;Signal;HPM_P1;HPM_P2
2022/05/15 00:01:51;;;;;;;16.88;5.88;;;20.10;71.50;;;;;;5013386;28;20493;-64
2022/05/15 00:04:16;;;;;;;19.90;6.20;;;20.10;71.50;;;;;;5013847;28;20057;-62
2022/05/15 00:06:43;;;;;;;19.48;6.40;;;20.00;71.50;;;;;;5013693;28;20022;-64
2022/05/15 00:09:09;;;;;;;14.63;6.05;;;20.00;71.60;;;;;;5013683;28;20022;-64
2022/05/15 00:11:35;;;;;;;17.45;6.30;;;20.00;71.60;;;;;;5013236;28;20036;-63
2022/05/15 00:14:02;;;;;;;16.27;7.05;;;20.00;71.60;;;;;;5013718;28;20468;-64
2022/05/15 00:16:29;;;;;;;18.02;6.05;;;20.00;71.50;;;;;;5013382;28;20494;-63
2022/05/15 00:18:55;;;;;;;17.70;6.38;;;20.00;71.40;;;;;;5013626;28;20101;-63
2022/05/15 00:21:20;;;;;;;15.77;5.95;;;20.00;71.30;;;;;;5013114;28;20100;-61
2022/05/15 00:23:46;;;;;;;23.98;7.43;;;20.00;71.30;;;;;;5013376;28;20037;-62
2022/05/15 00:26:11;;;;;;;19.15;6.05;;;20.00;71.20;;;;;;5006697;28;20112;-63
2022/05/15 00:28:37;;;;;;;22.25;6.75;;;20.00;71.20;;;;;;5002056;28;20050;-61
2022/05/15 00:31:04;;;;;;;17.15;5.93;;;19.90;71.20;;;;;;5004457;28;20535;-64
2022/05/15 00:33:29;;;;;;;25.25;6.45;;;19.90;71.10;;;;;;5013376;28;20483;-63
2022/05/15 00:35:55;;;;;;;17.83;6.00;;;19.90;71.00;;;;;;5013244;28;20037;-59
2022/05/15 00:38:21;;;;;;;17.27;6.13;;;19.90;71.10;;;;;;5013392;28;20034;-60
2022/05/15 00:40:49;;;;;;;19.80;7.43;;;19.90;71.00;;;;;;5012262;28;20037;-64
2022/05/15 00:43:34;;;;;;;16.17;5.90;;;19.80;71.00;;;;;;5013207;28;20065;-63
2022/05/15 00:46:01;;;;;;;15.70;5.50;;;19.90;70.80;;;;;;5015614;28;20407;-64
2022/05/15 00:48:26;;;;;;;18.65;6.50;;;19.90;70.70;;;;;;5017296;28;20438;-64
2022/05/15 00:50:53;;;;;;;22.83;7.13;;;19.90;70.60;;;;;;5005944;28;20467;-60
2022/05/15 00:53:19;;;;;;;18.15;6.00;;;19.80;70.60;;;;;;5016229;28;20075;-63
2022/05/15 00:55:50;;;;;;;20.73;6.25;;;19.70;70.60;;;;;;5017000;28;20061;-63
2022/05/15 00:58:23;;;;;;;14.75;5.82;;;19.80;70.60;;;;;;5016758;28;20057;-63
2022/05/15 01:00:48;;;;;;;;;;;19.70;70.50;;;;;;5002491;28;20108;-64
2022/05/15 01:03:17;;;;;;;17.13;5.88;;;19.70;70.30;;;;;;5016936;28;19909;-64
2022/05/15 01:05:49;;;;;;;17.98;6.53;;;19.70;70.40;;;;;;5017018;28;20018;-64
2022/05/15 01:08:15;;;;;;;22.35;6.70;;;19.60;70.50;;;;;;5016899;28;20475;-62
2022/05/15 01:10:48;;;;;;;17.67;6.38;;;19.60;70.30;;;;;;5016356;28;20038;-64
2022/05/15 01:13:15;;;;;;;17.20;6.15;;;19.60;70.30;;;;;;5016613;28;20024;-61
2022/05/15 01:15:43;;;;;;;22.60;6.03;;;19.60;70.40;;;;;;5016818;28;20079;-64
2022/05/15 01:18:09;;;;;;;17.75;6.60;;;19.60;70.50;;;;;;5016656;28;20018;-63
2022/05/15 01:20:37;;;;;;;18.95;6.32;;;19.60;70.50;;;;;;5016758;28;20057;-62
2022/05/15 01:23:03;;;;;;;22.17;6.15;;;19.60;70.50;;;;;;5016802;28;20022;-63
2022/05/15 01:25:32;;;;;;;21.70;6.68;;;19.50;70.40;;;;;;5016772;28;20033;-64
2022/05/15 01:28:10;;;;;;;14.77;6.15;;;19.60;70.60;;;;;;5016164;28;20037;-63
2022/05/15 01:30:38;;;;;;;16.83;6.85;;;19.50;70.40;;;;;;5016306;28;20081;-61
2022/05/15 01:33:06;;;;;;;17.83;6.28;;;19.60;70.40;;;;;;5016457;28;20065;-64
2022/05/15 01:35:32;;;;;;;18.77;6.25;;;19.60;70.40;;;;;;5016599;28;20036;-64
2022/05/15 01:37:57;;;;;;;18.20;6.30;;;19.50;70.50;;;;;;5016155;28;20033;-60
2022/05/15 01:40:23;;;;;;;19.02;6.35;;;19.50;70.60;;;;;;5016204;28;20029;-63
2022/05/15 01:42:49;;;;;;;18.67;6.25;;;19.50;70.60;;;;;;5016072;28;20010;-60
2022/05/15 01:45:15;;;;;;;20.23;6.20;;;19.50;70.60;;;;;;5016385;28;20052;-61
2022/05/15 01:47:42;;;;;;;16.23;6.70;;;19.50;70.60;;;;;;5016057;28;20089;-63
2022/05/15 01:50:08;;;;;;;17.13;6.90;;;19.50;70.70;;;;;;5016395;28;20103;-64
2022/05/15 01:52:35;;;;;;;19.05;6.72;;;19.40;70.70;;;;;;5016212;28;20041;-63
2022/05/15 01:55:01;;;;;;;18.10;6.75;;;19.40;70.60;;;;;;5016315;28;20093;-63
2022/05/15 01:57:26;;;;;;;21.17;6.82;;;19.40;70.70;;;;;;5014228;28;20062;-63
2022/05/15 01:59:52;;;;;;;22.98;6.53;;;19.40;70.60;;;;;;5015920;28;20479;-64
2022/05/15 02:02:18;;;;;;;18.85;6.25;;;19.40;70.70;;;;;;5016004;28;20029;-64
2022/05/15 02:04:43;;;;;;;20.85;7.22;;;19.40;70.60;;;;;;5015926;28;20021;-63
2022/05/15 02:07:09;;;;;;;19.83;6.47;;;19.40;70.60;;;;;;5015839;28;20479;-63
2022/05/15 02:09:34;;;;;;;19.23;7.20;;;19.40;70.60;;;;;;5015491;28;20037;-64
2022/05/15 02:12:00;;;;;;;16.02;6.43;;;19.30;70.50;;;;;;5015609;28;20463;-59
2022/05/15 02:14:26;;;;;;;18.35;6.40;;;19.30;70.50;;;;;;5015674;28;20060;-64
2022/05/15 02:16:51;;;;;;;21.88;7.15;;;19.40;70.60;;;;;;5015989;28;20033;-64
2022/05/15 02:19:17;;;;;;;18.48;6.78;;;19.30;70.50;;;;;;5015345;28;20030;-63
2022/05/15 02:21:44;;;;;;;19.25;6.65;;;19.30;70.50;;;;;;5015761;28;20021;-64
2022/05/15 02:24:10;;;;;;;18.38;6.60;;;19.20;70.50;;;;;;5015509;28;20103;-63
2022/05/15 02:26:37;;;;;;;23.55;7.32;;;19.20;70.50;;;;;;5015258;28;20137;-63
2022/05/15 02:29:03;;;;;;;21.40;7.07;;;19.20;70.50;;;;;;5015035;28;20049;-63
2022/05/15 02:31:29;;;;;;;20.60;7.07;;;19.20;70.40;;;;;;5015408;28;20478;-64
2022/05/15 02:33:55;;;;;;;18.48;6.35;;;19.20;70.40;;;;;;5015356;28;20030;-64
2022/05/15 02:36:20;;;;;;;19.17;6.85;;;19.20;70.40;;;;;;5015198;28;20033;-63
2022/05/15 02:38:46;;;;;;;17.70;6.07;;;19.10;70.40;;;;;;5015465;28;20029;-62
2022/05/15 02:41:12;;;;;;;20.25;6.88;;;19.20;70.40;;;;;;5014815;28;20026;-63
2022/05/15 02:43:37;;;;;;;27.60;7.00;;;19.20;70.30;;;;;;5015191;28;20034;-60
2022/05/15 02:46:03;;;;;;;17.60;6.65;;;19.20;70.20;;;;;;5015014;28;20026;-62
2022/05/15 02:51:12;;;;;;;19.65;7.05;;;19.10;70.30;;;;;;5014936;28;20068;-60
2022/05/15 02:53:41;;;;;;;20.80;7.53;;;19.10;70.20;;;;;;5015117;28;20391;-64
2022/05/15 02:56:11;;;;;;;18.35;6.15;;;19.10;70.20;;;;;;5014737;28;20036;-63
2022/05/15 02:58:37;;;;;;;20.73;7.30;;;19.10;70.20;;;;;;5014959;28;20451;-63
2022/05/15 03:01:03;;;;;;;19.75;6.75;;;19.10;70.20;;;;;;5014835;28;20076;-64
2022/05/15 03:03:29;;;;;;;21.92;6.82;;;19.00;70.20;;;;;;5015046;28;20030;-63
2022/05/15 03:05:55;;;;;;;17.98;6.57;;;19.00;70.30;;;;;;5014668;28;20137;-63
2022/05/15 03:08:20;;;;;;;23.52;7.28;;;19.10;70.30;;;;;;5014162;28;20113;-62
2022/05/15 03:10:46;;;;;;;20.67;6.47;;;19.00;70.30;;;;;;5014494;28;20104;-64
2022/05/15 03:13:12;;;;;;;23.33;7.32;;;18.90;70.20;;;;;;5014718;28;20026;-63
2022/05/15 03:15:38;;;;;;;21.05;6.78;;;18.90;70.40;;;;;;5014182;28;20034;-63
2022/05/15 03:18:04;;;;;;;21.42;7.07;;;18.90;70.50;;;;;;5014946;28;20460;-62
2022/05/15 03:20:30;;;;;;;20.20;7.13;;;18.80;70.60;;;;;;5014323;28;20026;-62
2022/05/15 03:22:56;;;;;;;21.83;7.47;;;18.90;70.60;;;;;;5014442;28;20467;-63
2022/05/15 03:25:23;;;;;;;18.65;7.13;;;18.80;70.70;;;;;;4994385;28;20472;-63
2022/05/15 03:27:49;;;;;;;17.52;6.07;;;18.80;71.50;;;;;;4994607;28;20027;-64
2022/05/15 03:30:14;;;;;;;26.23;7.18;;;18.80;70.80;;;;;;4994640;28;20045;-63
2022/05/15 03:32:40;;;;;;;16.73;6.95;;;18.70;70.80;;;;;;5006874;28;20030;-63
2022/05/15 03:35:07;;;;;;;19.67;6.78;;;18.80;70.80;;;;;;5014322;28;20499;-63
2022/05/15 03:37:33;;;;;;;20.35;6.88;;;18.80;70.80;;;;;;5014095;28;20022;-62
2022/05/15 03:39:59;;;;;;;23.98;7.60;;;18.70;71.00;;;;;;5013758;28;20036;-63
2022/05/15 03:42:25;;;;;;;20.27;7.45;;;18.70;71.00;;;;;;5013718;28;20081;-63
2022/05/15 03:44:52;;;;;;;19.65;5.68;;;18.70;71.20;;;;;;5013978;28;20030;-63
2022/05/15 03:47:17;;;;;;;20.20;6.25;;;18.60;71.30;;;;;;5014122;28;20073;-61
2022/05/15 03:49:43;;;;;;;19.95;7.22;;;18.60;71.30;;;;;;5014326;28;20526;-62
2022/05/15 03:52:09;;;;;;;22.80;7.50;;;18.60;71.30;;;;;;5013529;28;20029;-60
2022/05/15 03:54:34;;;;;;;24.45;7.68;;;18.60;71.30;;;;;;5013614;28;20030;-60
2022/05/15 03:57:00;;;;;;;17.33;6.05;;;18.70;71.30;;;;;;5014065;28;20014;-63
2022/05/15 03:59:38;;;;;;;19.45;6.60;;;18.60;71.30;;;;;;5013935;28;20092;-63
2022/05/15 04:02:06;;;;;;;21.50;7.00;;;18.50;71.50;;;;;;5013631;28;20104;-63
2022/05/15 04:04:32;;;;;;;20.85;7.22;;;18.50;71.40;;;;;;5013311;28;20030;-64
2022/05/15 04:07:00;;;;;;;18.77;7.10;;;18.50;71.40;;;;;;5012443;28;20080;-63
2022/05/15 04:09:26;;;;;;;22.70;7.07;;;18.60;71.50;;;;;;5013178;28;20069;-62
2022/05/15 04:11:52;;;;;;;24.80;7.13;;;18.50;71.50;;;;;;5013617;28;20026;-63
2022/05/15 04:14:17;;;;;;;22.55;7.80;;;18.50;71.70;;;;;;5012756;28;20459;-63
2022/05/15 04:16:43;;;;;;;21.60;6.97;;;18.50;71.80;;;;;;5012286;28;20093;-62
2022/05/15 04:19:09;;;;;;;25.73;8.00;;;18.50;72.00;;;;;;5013272;28;20403;-63
2022/05/15 04:21:40;;;;;;;17.23;6.80;;;18.50;72.60;;;;;;5013099;28;20524;-63
2022/05/15 04:24:11;;;;;;;19.40;6.78;;;18.40;72.00;;;;;;5013692;28;20030;-58
2022/05/15 04:26:38;;;;;;;17.23;6.80;;;18.40;72.20;;;;;;5013342;28;20471;-63
2022/05/15 04:29:05;;;;;;;23.45;7.45;;;18.40;72.20;;;;;;5013495;28;20142;-61
2022/05/15 04:31:30;;;;;;;23.70;7.88;;;18.30;72.30;;;;;;5013376;28;20044;-63
2022/05/15 04:33:56;;;;;;;17.85;7.20;;;18.30;72.20;;;;;;5013427;28;20396;-63
2022/05/15 04:36:22;;;;;;;23.10;7.53;;;18.30;72.40;;;;;;5012993;28;20104;-63
2022/05/15 04:38:48;;;;;;;25.80;7.32;;;18.30;72.50;;;;;;5013367;28;20026;-63
2022/05/15 04:41:13;;;;;;;17.63;7.32;;;18.30;72.60;;;;;;5013181;28;20034;-62
2022/05/15 04:43:39;;;;;;;24.60;6.80;;;18.30;72.80;;;;;;5013527;28;20029;-60
2022/05/15 04:46:07;;;;;;;21.13;7.38;;;18.30;72.80;;;;;;5013401;28;20026;-62
2022/05/15 04:48:34;;;;;;;19.55;6.90;;;18.30;73.40;;;;;;5013299;28;20038;-60
2022/05/15 04:50:59;;;;;;;21.50;7.20;;;18.30;73.00;;;;;;5012823;28;20049;-60
2022/05/15 04:53:27;;;;;;;16.83;7.07;;;18.20;73.60;;;;;;5013133;28;20108;-64
2022/05/15 04:55:53;;;;;;;19.95;7.25;;;18.20;73.10;;;;;;5013256;28;20025;-62
2022/05/15 04:58:19;;;;;;;23.00;7.13;;;18.20;73.20;;;;;;5013160;28;20034;-63
2022/05/15 05:00:45;;;;;;;23.45;7.78;;;18.30;73.30;;;;;;5010340;28;20379;-64
2022/05/15 05:03:11;;;;;;;24.98;8.25;;;18.30;73.20;;;;;;5001919;28;20467;-64
2022/05/15 05:05:36;;;;;;;19.83;7.78;;;18.20;73.30;;;;;;4993205;28;20037;-63
2022/05/15 05:08:02;;;;;;;20.63;8.23;;;18.20;73.40;;;;;;4993332;28;20381;-63
2022/05/15 05:10:28;;;;;;;19.95;7.45;;;18.20;73.40;;;;;;4993632;28;20027;-65
2022/05/15 05:12:53;;;;;;;16.63;7.38;;;18.20;73.50;;;;;;4998688;28;20425;-64
2022/05/15 05:15:19;;;;;;;19.05;7.70;;;18.20;73.60;;;;;;5003989;28;20033;-61
2022/05/15 05:17:44;;;;;;;17.80;7.65;;;18.20;73.80;;;;;;5012094;28;20058;-63
2022/05/15 05:20:12;;;;;;;23.17;8.07;;;18.20;73.90;;;;;;5012518;28;20432;-63
2022/05/15 05:22:37;;;;;;;20.90;7.70;;;18.20;74.10;;;;;;5012654;28;20030;-63
2022/05/15 05:25:03;;;;;;;17.05;7.47;;;18.20;74.10;;;;;;5012544;28;20030;-64
2022/05/15 05:27:29;;;;;;;20.95;8.50;;;18.20;74.20;;;;;;5012320;28;20068;-63
2022/05/15 05:29:54;;;;;;;20.55;8.25;;;18.20;74.20;;;;;;5011470;28;20452;-62
2022/05/15 05:32:20;;;;;;;27.40;8.10;;;18.20;74.40;;;;;;5016249;28;20491;-59
2022/05/15 05:34:45;;;;;;;27.52;8.65;;;18.20;74.60;;;;;;5009492;28;20026;-61
2022/05/15 05:37:11;;;;;;;21.45;7.80;;;18.20;74.60;;;;;;5015252;28;20045;-63
2022/05/15 05:39:36;;;;;;;17.85;7.95;;;18.20;74.80;;;;;;5016348;28;20068;-62
2022/05/15 05:42:02;;;;;;;18.27;8.02;;;18.20;75.00;;;;;;5015768;28;20018;-60
2022/05/15 05:44:28;;;;;;;20.42;8.82;;;18.20;75.20;;;;;;5015571;28;20388;-63
2022/05/15 05:46:54;;;;;;;24.17;8.20;;;18.20;75.30;;;;;;5016195;28;20014;-63
2022/05/15 05:49:19;;;;;;;19.27;8.80;;;18.30;75.60;;;;;;5015064;28;20129;-63
2022/05/15 05:51:45;;;;;;;17.55;8.25;;;18.40;75.60;;;;;;5015544;28;20068;-59
2022/05/15 05:54:11;;;;;;;19.85;8.57;;;18.40;75.10;;;;;;5011471;28;20026;-60
2022/05/15 05:56:37;;;;;;;21.92;8.40;;;18.50;74.80;;;;;;5016300;28;20100;-62
2022/05/15 05:59:03;;;;;;;20.38;8.43;;;18.60;74.60;;;;;;5020554;28;20443;-59
2022/05/15 06:01:28;;;;;;;18.67;8.85;;;18.60;74.50;;;;;;5015808;28;20542;-59
2022/05/15 06:06:38;;;;;;;20.70;9.60;;;18.70;74.70;;;;;;4996363;28;20154;-62
2022/05/15 06:09:04;;;;;;;20.35;8.43;;;18.70;74.50;;;;;;5003119;28;20045;-63
2022/05/15 06:11:29;;;;;;;14.73;7.47;;;18.80;74.50;;;;;;5014624;28;20022;-59
2022/05/15 06:13:55;;;;;;;21.67;9.68;;;18.90;74.40;;;;;;5012601;28;20559;-60
2022/05/15 06:16:20;;;;;;;26.25;8.77;;;18.90;74.10;;;;;;5011451;28;20487;-63
2022/05/15 06:18:46;;;;;;;23.05;8.30;;;19.00;74.30;;;;;;5011289;28;20391;-62
2022/05/15 06:21:13;;;;;;;17.88;8.50;;;19.10;74.20;;;;;;5010925;28;20022;-59
2022/05/15 06:23:38;;;;;;;16.63;8.30;;;19.10;73.70;;;;;;5010230;28;20030;-63
2022/05/15 06:26:04;;;;;;;23.15;9.57;;;19.20;73.30;;;;;;5008443;28;20085;-60
2022/05/15 06:28:30;;;;;;;19.75;8.48;;;19.20;73.20;;;;;;4995346;28;20046;-59
2022/05/15 06:30:56;;;;;;;16.08;7.93;;;19.20;73.50;;;;;;4996018;28;20441;-60
2022/05/15 06:33:21;;;;;;;16.77;7.53;;;19.20;73.30;;;;;;5011217;28;20026;-61
2022/05/15 06:35:47;;;;;;;20.70;8.88;;;19.20;73.30;;;;;;5004755;28;20033;-59
2022/05/15 06:38:13;;;;;;;18.70;8.98;;;19.20;73.40;;;;;;5014873;28;20025;-64
2022/05/15 06:40:38;;;;;;;21.75;8.23;;;19.20;73.30;;;;;;5012860;28;20038;-64
2022/05/15 06:43:04;;;;;;;18.17;8.15;;;19.30;73.30;;;;;;5013201;28;20467;-60
2022/05/15 06:45:29;;;;;;;14.75;7.90;;;19.30;73.50;;;;;;5009066;28;20021;-61
2022/05/15 06:47:55;;;;;;;20.88;8.75;;;19.40;73.30;;;;;;5006925;28;20022;-59
2022/05/15 06:50:21;;;;;;;19.42;8.45;;;19.50;73.50;;;;;;5011145;28;20045;-63
2022/05/15 06:52:47;;;;;;;13.82;7.65;;;19.50;73.00;;;;;;5009989;28;20084;-62
2022/05/15 06:55:15;;;;;;;19.38;8.10;;;19.60;73.30;;;;;;5010090;28;20104;-63
2022/05/15 06:57:43;;;;;;;18.85;7.88;;;19.70;73.20;;;;;;5011813;28;20482;-61
2022/05/15 07:00:12;;;;;;;15.32;7.40;;;19.80;73.50;;;;;;5010807;28;20029;-63
2022/05/15 07:02:41;;;;;;;17.85;7.13;;;19.80;73.20;;;;;;5005593;28;20036;-62
2022/05/15 07:05:08;;;;;;;17.23;7.63;;;19.80;73.60;;;;;;4999603;28;20030;-61
2022/05/15 07:07:34;;;;;;;19.15;7.93;;;19.90;73.90;;;;;;5003906;28;20107;-63
2022/05/15 07:09:59;;;;;;;18.98;8.23;;;19.90;73.60;;;;;;5019249;28;20073;-63
2022/05/15 07:12:25;;;;;;;17.20;7.80;;;20.00;73.30;;;;;;5012907;28;20018;-61
2022/05/15 07:14:51;;;;;;;21.70;7.60;;;20.00;73.30;;;;;;5008133;28;20131;-60
2022/05/15 07:17:16;;;;;;;18.77;7.68;;;20.10;73.00;;;;;;5009602;28;20472;-59
2022/05/15 07:19:42;;;;;;;12.95;7.13;;;20.20;73.00;;;;;;5001319;28;20475;-63
2022/05/15 07:22:09;;;;;;;15.43;7.47;;;20.20;72.70;;;;;;5006982;28;20029;-61
2022/05/15 07:24:38;;;;;;;14.57;7.18;;;20.30;72.30;;;;;;5018924;28;20022;-59
2022/05/15 07:27:06;;;;;;;14.25;7.75;;;20.40;72.30;;;;;;5014265;28;20022;-60
2022/05/15 07:29:33;;;;;;;15.43;7.22;;;20.40;72.20;;;;;;5019074;28;20437;-60
2022/05/15 07:31:59;;;;;;;15.90;7.07;;;20.40;71.90;;;;;;5009963;28;20022;-60
2022/05/15 07:34:24;;;;;;;13.73;6.50;;;20.50;71.70;;;;;;5015018;28;20099;-63
2022/05/15 07:36:52;;;;;;;15.70;6.93;;;20.60;71.70;;;;;;5011806;28;20014;-59
2022/05/15 07:39:20;;;;;;;14.88;6.70;;;20.60;71.20;;;;;;5017825;28;20084;-63
2022/05/15 07:41:46;;;;;;;14.38;6.13;;;20.70;70.60;;;;;;5015591;28;20456;-62
2022/05/15 07:44:11;;;;;;;16.23;6.70;;;20.70;70.90;;;;;;5013619;28;20022;-63
2022/05/15 07:46:37;;;;;;;12.85;6.20;;;20.80;70.90;;;;;;5011839;28;20083;-60
2022/05/15 07:49:03;;;;;;;15.90;6.47;;;20.80;70.60;;;;;;5018401;28;20395;-63
2022/05/15 07:51:31;;;;;;;18.58;7.13;;;20.90;70.70;;;;;;5020295;28;20025;-59
2022/05/15 07:53:56;;;;;;;13.90;6.85;;;20.90;69.90;;;;;;5011692;28;20022;-63
2022/05/15 07:56:22;;;;;;;12.07;5.95;;;21.00;69.80;;;;;;5016623;28;20035;-60
2022/05/15 07:58:49;;;;;;;14.18;6.47;;;21.00;69.70;;;;;;5013510;28;20029;-64
2022/05/15 08:01:15;;;;;;;13.45;6.53;;;21.10;69.70;;;;;;5012406;28;20172;-60
2022/05/15 08:03:43;;;;;;;18.27;6.53;;;21.10;69.30;;;;;;5021453;28;20431;-62
2022/05/15 08:08:54;;;;;;;15.00;5.63;;;21.20;69.20;;;;;;5010634;28;20065;-64
2022/05/15 08:11:20;;;;;;;12.52;5.63;;;21.30;69.00;;;;;;5011973;28;20471;-63
2022/05/15 08:13:46;;;;;;;9.55;4.78;;;21.40;68.50;;;;;;5012672;28;20034;-59
2022/05/15 08:16:12;;;;;;;12.90;5.40;;;21.30;69.20;;;;;;5001526;28;20018;-63
2022/05/15 08:24:06;;;;;;;9.05;4.72;;;21.30;69.30;;;;;;5006860;28;20180;-63
2022/05/15 08:26:31;;;;;;;12.60;5.15;;;21.30;69.80;;;;;;5007351;28;20483;-60
2022/05/15 08:28:57;;;;;;;16.23;4.88;;;21.40;69.90;;;;;;5008000;28;20049;-62
2022/05/15 08:31:25;;;;;;;15.43;4.82;;;21.40;69.40;;;;;;5006233;28;20022;-60
2022/05/15 08:33:51;;;;;;;11.15;4.50;;;21.40;69.50;;;;;;5011281;28;20033;-64
2022/05/15 08:36:18;;;;;;;12.23;5.45;;;21.40;70.10;;;;;;5008183;28;20045;-65
2022/05/15 08:38:44;;;;;;;16.95;6.22;;;21.50;69.80;;;;;;5006417;28;20083;-63
2022/05/15 08:41:33;;;;;;;11.27;5.40;;;21.60;68.50;;;;;;5011462;28;20018;-60
2022/05/15 08:44:10;;;;;;;12.07;5.30;;;21.70;68.50;;;;;;5007383;28;20041;-60
2022/05/15 08:46:50;;;;;;;12.07;5.60;;;21.70;67.70;;;;;;5007770;28;20041;-60
2022/05/15 08:49:38;;;;;;;15.57;5.40;;;21.80;68.00;;;;;;5011194;28;20064;-63
2022/05/15 08:52:15;;;;;;;10.52;4.25;;;21.90;67.70;;;;;;5012606;28;20032;-61
2022/05/15 08:54:55;;;;;;;12.77;5.63;;;21.80;69.60;;;;;;5017941;28;20037;-60
2022/05/15 08:57:31;;;;;;;11.40;4.70;;;21.80;67.40;;;;;;5015775;28;20021;-63
2022/05/15 08:59:58;;;;;;;13.95;4.00;;;21.80;68.00;;;;;;5012818;28;20033;-63
2022/05/15 09:02:25;;;;;;;14.48;5.72;;;21.90;68.90;;;;;;5017144;28;20018;-62
2022/05/15 09:04:52;;;;;;;14.23;6.28;;;22.00;64.80;;;;;;5006558;28;20030;-61
2022/05/15 09:07:27;;;;;;;18.98;5.60;;;22.10;63.70;;;;;;5012540;28;20045;-59
2022/05/15 09:10:17;;;;;;;13.02;4.32;;;22.00;65.70;;;;;;5004817;28;20067;-61
2022/05/15 09:12:45;;;;;;;11.90;3.83;;;21.90;66.40;;;;;;5010070;28;20041;-60
2022/05/15 09:15:14;;;;;;;14.77;3.95;;;21.90;67.10;;;;;;5016303;28;20025;-59
2022/05/15 09:18:03;;;;;;;14.50;4.25;;;21.90;66.20;;;;;;5011765;28;20040;-60
2022/05/15 09:20:55;;;;;;;13.45;4.47;;;21.90;68.10;;;;;;5012967;28;20029;-63
2022/05/15 09:23:34;;;;;;;13.98;4.60;;;22.00;65.60;;;;;;5007565;28;20061;-60
2022/05/15 09:26:28;;;;;;;11.30;4.00;;;22.00;64.10;;;;;;5013741;28;20033;-61
2022/05/15 09:28:58;;;;;;;9.52;3.47;;;22.10;63.40;;;;;;5012462;28;20049;-61
2022/05/15 09:31:33;;;;;;;12.13;4.22;;;22.10;65.40;;;;;;5011443;28;20419;-61
2022/05/15 09:34:03;;;;;;;11.50;3.63;;;22.00;67.40;;;;;;5021175;28;20040;-63
2022/05/15 09:36:34;;;;;;;8.75;2.95;;;22.00;64.50;;;;;;5026294;28;20021;-62
2022/05/15 09:39:43;;;;;;;11.93;3.10;;;22.10;63.80;;;;;;5017552;28;20026;-64
2022/05/15 09:45:16;;;;;;;9.73;3.75;;;22.10;66.10;;;;;;5016335;28;20088;-61
2022/05/15 09:47:50;;;;;;;8.65;3.03;;;22.10;65.60;;;;;;5014918;28;20026;-64
2022/05/15 09:50:38;;;;;;;7.05;3.10;;;22.10;63.40;;;;;;5004684;28;20029;-64
2022/05/15 09:53:09;;;;;;;10.85;3.30;;;22.20;63.70;;;;;;5016225;28;20014;-61
2022/05/15 09:55:34;;;;;;;12.48;3.47;;;22.20;65.40;;;;;;5024678;28;20105;-64
2022/05/15 09:58:13;;;;;;;13.88;3.30;;;22.20;64.60;;;;;;5013120;28;20054;-62
2022/05/15 10:00:39;;;;;;;9.00;3.00;;;22.20;62.90;;;;;;5008061;28;20029;-61
2022/05/15 10:03:25;;;;;;;7.40;2.72;;;22.30;60.60;;;;;;5019658;28;20022;-64
2022/05/15 10:06:03;;;;;;;7.30;2.70;;;22.30;61.60;;;;;;5016862;28;20068;-64
2022/05/15 10:08:30;;;;;;;11.13;3.17;;;22.40;61.40;;;;;;5009433;28;20172;-61
2022/05/15 10:11:19;;;;;;;7.70;2.92;;;22.40;62.10;;;;;;5015198;28;20022;-61
2022/05/15 10:13:50;;;;;;;9.05;2.78;;;22.50;61.20;;;;;;5026712;28;20014;-62
2022/05/15 10:16:18;;;;;;;9.73;3.00;;;22.50;60.30;;;;;;5013616;28;20033;-65
2022/05/15 10:19:13;;;;;;;8.45;2.63;;;22.50;61.10;;;;;;5006959;28;20026;-60
2022/05/15 10:21:45;;;;;;;7.45;2.35;;;22.50;61.70;;;;;;5015568;28;20029;-63
2022/05/15 10:24:35;;;;;;;7.35;2.63;;;22.50;60.80;;;;;;5023006;28;20540;-60
2022/05/15 10:27:10;;;;;;;9.35;2.75;;;22.60;59.50;;;;;;5012101;28;20056;-64
2022/05/15 10:30:33;;;;;;;9.35;3.03;;;22.60;60.40;;;;;;5012515;28;20044;-62
2022/05/15 10:33:03;;;;;;;;;;;22.60;60.40;;;;;;5034018;28;20150;-65
2022/05/15 10:35:56;;;;;;;7.10;2.67;;;22.60;60.80;;;;;;5037414;28;19963;-62
2022/05/15 10:38:30;;;;;;;8.20;2.90;;;22.60;60.70;;;;;;5014598;28;20049;-63
2022/05/15 10:41:38;;;;;;;7.25;2.35;;;22.60;60.20;;;;;;5007776;28;20029;-61
2022/05/15 10:44:19;;;;;;;6.15;2.50;;;22.60;60.20;;;;;;5014814;28;20160;-59
2022/05/15 10:46:49;;;;;;;7.28;2.00;;;22.60;60.10;;;;;;5019889;28;20053;-65
2022/05/15 10:49:23;;;;;;;6.88;2.38;;;22.70;59.50;;;;;;5010681;28;20038;-65
2022/05/15 10:52:26;;;;;;;6.07;2.00;;;22.80;58.90;;;;;;5009402;28;20037;-61
2022/05/15 10:58:49;;;;;;;9.70;2.35;;;22.80;58.50;;;;;;5010501;28;20037;-59
2022/05/15 11:01:32;;;;;;;6.57;2.35;;;22.80;59.40;;;;;;5014946;28;20033;-62
2022/05/15 11:04:16;;;;;;;6.65;1.42;;;22.80;60.00;;;;;;5002557;28;20029;-64
2022/05/15 11:06:46;;;;;;;9.13;2.13;;;22.80;58.10;;;;;;5015069;28;20033;-62
2022/05/15 11:09:12;;;;;;;6.15;1.73;;;22.90;58.40;;;;;;5022026;28;20037;-60
2022/05/15 11:11:59;;;;;;;3.53;1.50;;;22.90;58.10;;;;;;5013247;28;20128;-63
2022/05/15 11:14:45;;;;;;;10.45;2.42;;;22.90;59.00;;;;;;5025434;28;20040;-65
2022/05/15 11:17:29;;;;;;;10.95;2.70;;;22.90;60.30;;;;;;5022942;28;20022;-64
2022/05/15 11:20:00;;;;;;;11.80;2.25;;;22.90;60.10;;;;;;5015525;28;20407;-65
2022/05/15 11:22:48;;;;;;;5.82;2.30;;;22.90;58.40;;;;;;5018265;28;20026;-65
2022/05/15 11:25:34;;;;;;;8.80;2.05;;;22.90;58.40;;;;;;4998716;28;20116;-64
2022/05/15 11:28:20;;;;;;;6.97;2.13;;;22.90;60.10;;;;;;5015829;28;20034;-63
2022/05/15 11:30:54;;;;;;;6.07;1.60;;;23.00;58.70;;;;;;5013947;28;20045;-65
2022/05/15 11:33:52;;;;;;;4.72;1.58;;;23.00;58.10;;;;;;5015580;28;20025;-63
2022/05/15 11:36:21;;;;;;;7.30;2.25;;;23.10;56.80;;;;;;5005220;28;20026;-65
2022/05/15 11:39:14;;;;;;;6.82;2.08;;;23.00;57.10;;;;;;5003522;28;20049;-64
2022/05/15 11:42:08;;;;;;;4.80;1.70;;;23.10;58.00;;;;;;5002909;28;20025;-60
2022/05/15 11:44:38;;;;;;;3.75;1.70;;;23.00;59.50;;;;;;5013645;28;20092;-64
2022/05/15 11:47:27;;;;;;;9.68;2.17;;;23.10;60.00;;;;;;5003215;28;20410;-65
2022/05/15 11:50:13;;;;;;;10.43;2.72;;;23.10;61.60;;;;;;5005935;28;20038;-65
2022/05/15 11:52:58;;;;;;;15.93;3.80;;;23.10;63.00;;;;;;5001851;28;20063;-63
2022/05/15 11:55:39;;;;;;;15.93;3.40;;;23.10;65.60;;;;;;5011653;28;20081;-65
2022/05/15 11:58:31;;;;;;;9.20;3.47;;;23.10;64.90;;;;;;5010759;28;20098;-64
2022/05/15 12:01:39;;;;;;;10.45;4.00;;;23.10;65.50;;;;;;5007194;28;20034;-65
2022/05/15 12:04:09;;;;;;;9.02;2.97;;;23.10;65.10;;;;;;5009714;28;20052;-63
2022/05/15 12:06:56;;;;;;;8.02;2.90;;;23.10;65.70;;;;;;5011335;28;20092;-61
2022/05/15 12:09:39;;;;;;;5.95;1.65;;;23.20;63.80;;;;;;5009590;28;20509;-61
2022/05/15 12:12:45;;;;;;;11.20;2.45;;;23.20;59.00;;;;;;5009562;28;20030;-63
2022/05/15 12:15:10;;;;;;;7.90;1.65;;;23.20;61.60;;;;;;5009711;28;20065;-60
2022/05/15 12:17:42;;;;;;;3.95;1.92;;;23.20;59.50;;;;;;5010910;28;20054;-60
2022/05/15 12:20:15;;;;;;;5.33;1.70;;;23.20;59.40;;;;;;5009221;28;20480;-62
2022/05/15 12:23:05;;;;;;;8.20;2.08;;;23.20;57.30;;;;;;5009292;28;20030;-60
2022/05/15 12:25:35;;;;;;;5.22;1.80;;;23.30;60.40;;;;;;5002972;28;20312;-61
2022/05/15 12:31:23;;;;;;;5.35;1.80;;;23.30;61.80;;;;;;5005599;28;20128;-63
2022/05/15 12:33:50;;;;;;;7.13;1.80;;;23.30;58.20;;;;;;5009368;28;20030;-64
2022/05/15 12:36:29;;;;;;;6.28;1.30;;;23.40;55.90;;;;;;5004508;28;20037;-60
2022/05/15 12:38:56;;;;;;;8.35;1.40;;;23.40;56.10;;;;;;5006937;28;20022;-59
2022/05/15 12:41:26;;;;;;;6.88;1.95;;;23.50;55.50;;;;;;5006606;28;20029;-63
2022/05/15 12:43:51;;;;;;;3.65;1.42;;;23.50;56.20;;;;;;4991849;28;20026;-61
2022/05/15 12:46:25;;;;;;;8.77;1.85;;;23.40;56.30;;;;;;4997188;28;20018;-63
2022/05/15 12:48:51;;;;;;;10.85;2.33;;;23.50;56.00;;;;;;4991177;28;20034;-59
2022/05/15 12:51:25;;;;;;;5.65;1.83;;;23.40;57.60;;;;;;5003202;28;20018;-60
2022/05/15 12:53:51;;;;;;;3.47;1.42;;;23.40;58.50;;;;;;5003703;28;20508;-62
2022/05/15 12:56:30;;;;;;;5.57;1.90;;;23.40;58.30;;;;;;5008519;28;20026;-62
2022/05/15 12:59:18;;;;;;;9.00;1.60;;;23.50;58.10;;;;;;5006955;28;20041;-63
2022/05/15 13:01:47;;;;;;;4.70;1.77;;;23.50;58.60;;;;;;5003681;28;20025;-63
2022/05/15 13:04:23;;;;;;;6.13;1.58;;;23.50;58.60;;;;;;4997325;28;20049;-61
2022/05/15 13:06:55;;;;;;;4.90;1.70;;;23.50;59.50;;;;;;5009075;28;20021;-61
2022/05/15 13:09:27;;;;;;;3.03;1.40;;;23.50;58.30;;;;;;5010374;28;20105;-62
2022/05/15 13:11:56;;;;;;;5.40;1.40;;;23.50;56.60;;;;;;5005597;28;20061;-58
2022/05/15 13:14:33;;;;;;;7.03;1.25;;;23.50;55.00;;;;;;5017977;28;20033;-59
2022/05/15 13:16:59;;;;;;;4.43;1.27;;;23.50;55.50;;;;;;5004555;28;20058;-59
2022/05/15 13:19:40;;;;;;;6.03;1.60;;;23.60;55.90;;;;;;5005340;28;20026;-61
2022/05/15 13:22:11;;;;;;;4.90;1.77;;;23.60;57.10;;;;;;5006067;28;20030;-62